sensor_id;sensor_type;location;lat;lon;timestamp;P1;durP1;ratioP1;P2;durP2;ratioP2
48873;SDS011;66155;46.204;5.220;2023-04-03T00:04:35;5.38;;;3.63;;
48873;SDS011;66155;46.204;5.220;2023-04-03T00:09:35;5.30;;;3.75;;
48873;SDS011;66155;46.204;5.220;2023-04-03T00:14:36;5.32;;;3.88;;
48873;SDS011;66155;46.204;5.220;2023-04-03T00:19:36;5.40;;;3.70;;
48873;SDS011;66155;46.204;5.220;2023-04-03T00:24:37;6.00;;;3.90;;
48873;SDS011;66155;46.204;5.220;2023-04-03T00:29:37;4.60;;;3.53;;
48873;SDS011;66155;46.204;5.220;2023-04-03T00:34:38;4.38;;;2.97;;
48873;SDS011;66155;46.204;5.220;2023-04-03T00:39:38;5.53;;;3.40;;
48873;SDS011;66155;46.204;5.220;2023-04-03T00:49:39;4.13;;;3.72;;
48873;SDS011;66155;46.204;5.220;2023-04-03T00:54:41;5.75;;;3.60;;
48873;SDS011;66155;46.204;5.220;2023-04-03T00:59:44;4.72;;;3.78;;
48873;SDS011;66155;46.204;5.220;2023-04-03T01:04:49;5.65;;;3.92;;
48873;SDS011;66155;46.204;5.220;2023-04-03T01:09:51;4.57;;;3.47;;
48873;SDS011;66155;46.204;5.220;2023-04-03T01:15:00;5.43;;;3.47;;
48873;SDS011;66155;46.204;5.220;2023-04-03T01:35:54;5.35;;;3.72;;
48873;SDS011;66155;46.204;5.220;2023-04-03T01:40:54;4.07;;;3.20;;
48873;SDS011;66155;46.204;5.220;2023-04-03T01:45:55;7.80;;;4.15;;
48873;SDS011;66155;46.204;5.220;2023-04-03T01:50:55;5.35;;;3.63;;
48873;SDS011;66155;46.204;5.220;2023-04-03T01:55:56;4.15;;;3.20;;
48873;SDS011;66155;46.204;5.220;2023-04-03T02:00:56;3.75;;;2.83;;
48873;SDS011;66155;46.204;5.220;2023-04-03T02:05:57;4.75;;;3.70;;
48873;SDS011;66155;46.204;5.220;2023-04-03T02:10:57;5.15;;;3.92;;
48873;SDS011;66155;46.204;5.220;2023-04-03T02:15:57;5.38;;;3.83;;
48873;SDS011;66155;46.204;5.220;2023-04-03T02:20:59;5.68;;;3.22;;
48873;SDS011;66155;46.204;5.220;2023-04-03T02:26:03;4.95;;;3.67;;
48873;SDS011;66155;46.204;5.220;2023-04-03T02:36:09;4.53;;;3.20;;
48873;SDS011;66155;46.204;5.220;2023-04-03T02:41:10;3.63;;;3.28;;
48873;SDS011;66155;46.204;5.220;2023-04-03T02:46:11;5.93;;;3.50;;
48873;SDS011;66155;46.204;5.220;2023-04-03T02:51:15;4.68;;;3.03;;
48873;SDS011;66155;46.204;5.220;2023-04-03T02:56:15;5.68;;;3.50;;
48873;SDS011;66155;46.204;5.220;2023-04-03T03:01:18;4.20;;;3.33;;
48873;SDS011;66155;46.204;5.220;2023-04-03T03:06:18;5.47;;;4.15;;
48873;SDS011;66155;46.204;5.220;2023-04-03T03:11:19;5.72;;;4.10;;
48873;SDS011;66155;46.204;5.220;2023-04-03T03:16:19;6.50;;;3.88;;
48873;SDS011;66155;46.204;5.220;2023-04-03T03:21:20;5.18;;;3.40;;
48873;SDS011;66155;46.204;5.220;2023-04-03T03:26:20;5.53;;;4.40;;
48873;SDS011;66155;46.204;5.220;2023-04-03T03:31:21;4.88;;;4.07;;
48873;SDS011;66155;46.204;5.220;2023-04-03T03:36:21;5.13;;;4.10;;
48873;SDS011;66155;46.204;5.220;2023-04-03T03:41:22;5.63;;;3.95;;
48873;SDS011;66155;46.204;5.220;2023-04-03T03:46:23;4.65;;;3.67;;
48873;SDS011;66155;46.204;5.220;2023-04-03T03:51:23;7.35;;;4.28;;
48873;SDS011;66155;46.204;5.220;2023-04-03T03:56:24;7.53;;;5.50;;
48873;SDS011;66155;46.204;5.220;2023-04-03T04:01:25;7.68;;;5.38;;
48873;SDS011;66155;46.204;5.220;2023-04-03T04:06:25;8.20;;;5.22;;
48873;SDS011;66155;46.204;5.220;2023-04-03T04:11:26;10.38;;;5.03;;
48873;SDS011;66155;46.204;5.220;2023-04-03T04:16:27;9.05;;;5.88;;
48873;SDS011;66155;46.204;5.220;2023-04-03T04:21:28;9.93;;;6.40;;
48873;SDS011;66155;46.204;5.220;2023-04-03T04:26:28;8.65;;;5.63;;
48873;SDS011;66155;46.204;5.220;2023-04-03T04:31:29;9.60;;;6.00;;
48873;SDS011;66155;46.204;5.220;2023-04-03T04:36:29;11.57;;;7.32;;
48873;SDS011;66155;46.204;5.220;2023-04-03T04:41:30;12.10;;;7.28;;
48873;SDS011;66155;46.204;5.220;2023-04-03T04:46:31;10.48;;;6.88;;
48873;SDS011;66155;46.204;5.220;2023-04-03T04:51:31;10.52;;;7.00;;
48873;SDS011;66155;46.204;5.220;2023-04-03T04:56:32;9.40;;;6.03;;
48873;SDS011;66155;46.204;5.220;2023-04-03T05:01:32;11.27;;;6.05;;
48873;SDS011;66155;46.204;5.220;2023-04-03T05:06:33;11.43;;;6.28;;
48873;SDS011;66155;46.204;5.220;2023-04-03T05:11:35;8.32;;;6.05;;
48873;SDS011;66155;46.204;5.220;2023-04-03T05:16:36;8.80;;;6.28;;
48873;SDS011;66155;46.204;5.220;2023-04-03T05:21:36;6.90;;;5.30;;
48873;SDS011;66155;46.204;5.220;2023-04-03T05:26:36;8.35;;;5.72;;
48873;SDS011;66155;46.204;5.220;2023-04-03T05:31:37;8.07;;;5.27;;
48873;SDS011;66155;46.204;5.220;2023-04-03T05:36:37;9.52;;;6.40;;
48873;SDS011;66155;46.204;5.220;2023-04-03T05:41:38;11.07;;;6.45;;
48873;SDS011;66155;46.204;5.220;2023-04-03T05:46:38;9.65;;;6.35;;
48873;SDS011;66155;46.204;5.220;2023-04-03T05:51:39;8.50;;;5.88;;
48873;SDS011;66155;46.204;5.220;2023-04-03T05:56:40;11.95;;;7.10;;
48873;SDS011;66155;46.204;5.220;2023-04-03T06:01:41;9.85;;;6.07;;
48873;SDS011;66155;46.204;5.220;2023-04-03T06:11:53;11.82;;;7.55;;
48873;SDS011;66155;46.204;5.220;2023-04-03T06:16:54;12.05;;;7.38;;
48873;SDS011;66155;46.204;5.220;2023-04-03T06:21:55;13.10;;;7.55;;
48873;SDS011;66155;46.204;5.220;2023-04-03T06:26:56;11.30;;;6.60;;
48873;SDS011;66155;46.204;5.220;2023-04-03T06:31:57;12.68;;;6.80;;
48873;SDS011;66155;46.204;5.220;2023-04-03T06:36:58;11.43;;;7.68;;
48873;SDS011;66155;46.204;5.220;2023-04-03T06:41:58;15.23;;;8.48;;
48873;SDS011;66155;46.204;5.220;2023-04-03T06:46:59;10.85;;;6.43;;
48873;SDS011;66155;46.204;5.220;2023-04-03T06:52:00;12.13;;;7.95;;
48873;SDS011;66155;46.204;5.220;2023-04-03T06:57:01;9.55;;;6.35;;
48873;SDS011;66155;46.204;5.220;2023-04-03T07:02:02;12.15;;;7.75;;
48873;SDS011;66155;46.204;5.220;2023-04-03T07:07:03;10.27;;;7.00;;
48873;SDS011;66155;46.204;5.220;2023-04-03T07:12:04;10.32;;;6.38;;
48873;SDS011;66155;46.204;5.220;2023-04-03T07:17:05;8.20;;;5.90;;
48873;SDS011;66155;46.204;5.220;2023-04-03T07:22:05;9.05;;;6.20;;
48873;SDS011;66155;46.204;5.220;2023-04-03T07:27:06;11.60;;;6.22;;
48873;SDS011;66155;46.204;5.220;2023-04-03T07:32:08;9.75;;;5.85;;
48873;SDS011;66155;46.204;5.220;2023-04-03T07:37:10;10.35;;;5.85;;
48873;SDS011;66155;46.204;5.220;2023-04-03T07:42:10;9.10;;;5.47;;
48873;SDS011;66155;46.204;5.220;2023-04-03T07:47:12;10.27;;;6.53;;
48873;SDS011;66155;46.204;5.220;2023-04-03T07:52:14;14.27;;;5.95;;
48873;SDS011;66155;46.204;5.220;2023-04-03T07:57:15;12.05;;;6.18;;
48873;SDS011;66155;46.204;5.220;2023-04-03T08:02:16;8.30;;;5.38;;
48873;SDS011;66155;46.204;5.220;2023-04-03T08:07:16;11.20;;;5.90;;
48873;SDS011;66155;46.204;5.220;2023-04-03T08:12:17;10.32;;;6.85;;
48873;SDS011;66155;46.204;5.220;2023-04-03T08:17:17;9.60;;;6.35;;
48873;SDS011;66155;46.204;5.220;2023-04-03T08:22:18;11.15;;;6.30;;
48873;SDS011;66155;46.204;5.220;2023-04-03T08:27:18;10.05;;;7.55;;
48873;SDS011;66155;46.204;5.220;2023-04-03T08:32:19;9.23;;;5.47;;
48873;SDS011;66155;46.204;5.220;2023-04-03T08:37:19;8.38;;;5.80;;
48873;SDS011;66155;46.204;5.220;2023-04-03T08:47:40;8.05;;;5.18;;
48873;SDS011;66155;46.204;5.220;2023-04-03T08:52:52;8.05;;;5.90;;
48873;SDS011;66155;46.204;5.220;2023-04-03T08:58:10;9.40;;;6.00;;
48873;SDS011;66155;46.204;5.220;2023-04-03T09:03:16;10.38;;;6.18;;
48873;SDS011;66155;46.204;5.220;2023-04-03T09:08:21;9.05;;;6.20;;
48873;SDS011;66155;46.204;5.220;2023-04-03T09:18:32;9.43;;;5.78;;
48873;SDS011;66155;46.204;5.220;2023-04-03T09:23:51;11.93;;;7.05;;
48873;SDS011;66155;46.204;5.220;2023-04-03T09:28:56;8.75;;;6.10;;
48873;SDS011;66155;46.204;5.220;2023-04-03T09:39:27;8.63;;;5.82;;
48873;SDS011;66155;46.204;5.220;2023-04-03T09:44:33;10.88;;;5.95;;
